S C — FGF7634 — position and weather

sailwx.info

Track history (hours):
 
Tides and Currents Weather Stations Pressure Air Temp Water Temp Dewpoint Dewpoint Depression Visibility Wind Speed Wind Dir Waves Ship Positions

S C

Last reported at 2016-Jul-28 04:33 UTC. Time now 2016-Jul-28 04:43 UTC.
Position N 49°29' E 000°07'.

; draft 1 m.

Type: Pilot. MMSI: 227001820.

Date/timePositionNaut miles runAvg speedWind from/ knotsBaromVisibWave heightAir tempDewpointWater temp
2016-Jul-28 04:33N 49°29' E 000°07'1 1.3
2016-Jul-28 03:33N 49°29' E 000°05'1 1.3
2016-Jul-28 02:33N 49°29' E 000°07'0 0.0
2016-Jul-28 01:33N 49°29' E 000°07'0 0.0
2016-Jul-28 00:33N 49°29' E 000°07'0 0.0
2016-Jul-27 23:33N 49°29' E 000°07'0 0.0
2016-Jul-27 22:33N 49°29' E 000°07'0 0.0
2016-Jul-27 21:33N 49°29' E 000°07'2 2.2
2016-Jul-27 20:34N 49°30' E 000°04'3 2.8
2016-Jul-27 19:34N 49°30' W 000°01'5 4.9
2016-Jul-27 18:34N 49°29' E 000°07'0 0.0
2016-Jul-27 17:33N 49°29' E 000°07'0 0.0
2016-Jul-27 16:34N 49°29' E 000°07'0 0.0
2016-Jul-27 15:33N 49°29' E 000°07'2 2.4
2016-Jul-27 14:33N 49°30' E 000°03'2 2.4
2016-Jul-27 13:34N 49°29' E 000°07'0 0.0
2016-Jul-27 12:34N 49°29' E 000°07'0 0.1
2016-Jul-27 11:33N 49°29' E 000°07'0 0.1
2016-Jul-27 10:33N 49°29' E 000°07'0 0.0
2016-Jul-27 09:33N 49°29' E 000°07'0 0.0
2016-Jul-27 08:33N 49°29' E 000°07'0 0.0
2016-Jul-27 07:33N 49°29' E 000°07'0 0.0
2016-Jul-27 06:33N 49°29' E 000°07'0 0.0
2016-Jul-27 05:33N 49°29' E 000°07'0 0.0
2016-Jul-27 04:33N 49°29' E 000°07'4 3.7
2016-Jul-27 03:33N 49°30' E 000°01'3 3.3
2016-Jul-27 02:33N 49°29' E 000°06'7 6.6
2016-Jul-27 01:34N 49°31' W 000°03'7 6.9
2016-Jul-27 00:33N 49°29' E 000°07'0 0.0
2016-Jul-26 23:33N 49°29' E 000°07'0 0.0
2016-Jul-26 22:33N 49°29' E 000°07'0 0.0
2016-Jul-26 21:33N 49°29' E 000°07'0 0.5
2016-Jul-26 20:33N 49°29' E 000°06'0 0.5
2016-Jul-26 19:33N 49°29' E 000°07'0 0.0
2016-Jul-26 18:33N 49°29' E 000°07'6 6.0
2016-Jul-26 17:33N 49°32' W 000°01'6 6.0
2016-Jul-26 16:34N 49°29' E 000°07'0 0.0
2016-Jul-26 15:34N 49°29' E 000°07'0 0.0
2016-Jul-26 14:33N 49°29' E 000°07'0 0.1
2016-Jul-26 13:33N 49°29' E 000°07'5 5.5
2016-Jul-26 12:33N 49°31' W 000°01'5 5.5
2016-Jul-26 11:33N 49°29' E 000°07'0 0.0
2016-Jul-26 10:33N 49°29' E 000°07'3 3.3
2016-Jul-26 09:34N 49°30' E 000°02'3 3.3
2016-Jul-26 08:33N 49°29' E 000°07'1 1.4
2016-Jul-26 07:34N 49°29' E 000°05'1 1.4
2016-Jul-26 06:33N 49°29' E 000°07'0 0.0
2016-Jul-25 08:26N 49°29' E 000°07'0 0.0
2016-Jul-24 10:33N 49°29' E 000°06'3 3.3
2016-Jul-24 09:34N 49°30' E 000°01'4 3.7
2016-Jul-24 08:33N 49°29' E 000°07'0 0.0
2016-Jul-24 07:33N 49°29' E 000°07'0 0.0
2016-Jul-24 06:34N 49°29' E 000°07'7 6.9
2016-Jul-24 05:33N 49°31' W 000°03'7 6.9
2016-Jul-24 04:33N 49°29' E 000°07'0 0.0
2016-Jul-24 03:33N 49°29' E 000°07'0 0.0
2016-Jul-24 02:33N 49°29' E 000°07'7 7.2
2016-Jul-24 01:33N 49°31' W 000°04'7 7.2
2016-Jul-24 00:33N 49°29' E 000°07'4 4.0
2016-Jul-23 23:33N 49°30' E 000°01'4 4.0
2016-Jul-23 22:33N 49°29' E 000°07'0 0.0
2016-Jul-23 21:33N 49°29' E 000°07'0 0.0
2016-Jul-23 20:33N 49°29' E 000°07'3 2.9
2016-Jul-23 19:34N 49°30' E 000°02'3 2.9
2016-Jul-23 18:34N 49°29' E 000°07'5 5.2
2016-Jul-23 17:33N 49°30' W 000°01'5 5.2
2016-Jul-23 16:33N 49°29' E 000°07'0 0.0
2016-Jul-23 15:33N 49°29' E 000°07'0 0.0
2016-Jul-23 14:33N 49°29' E 000°07'7 6.7
2016-Jul-23 13:33N 49°31' W 000°03'7 6.7
2016-Jul-23 12:33N 49°29' E 000°07'0 0.0
2016-Jul-23 11:34N 49°29' E 000°07'0 0.0
2016-Jul-23 10:34N 49°29' E 000°07'1 0.9
2016-Jul-23 09:34N 49°29' E 000°05'5 4.8
2016-Jul-23 08:34N 49°30' W 000°02'1 0.8
2016-Jul-23 07:33N 49°31' W 000°01'5 5.0
2016-Jul-23 06:34N 49°29' E 000°07'3 1.6
2016-Jul-23 04:33N 49°30' E 000°02'3 3.2
2016-Jul-23 03:33N 49°29' E 000°07'0 0.0
2016-Jul-23 02:34N 49°29' E 000°07'10 9.5
2016-Jul-23 01:34N 49°33' W 000°06'10 9.5
2016-Jul-23 00:33N 49°29' E 000°07'0 0.0
2016-Jul-22 23:33N 49°29' E 000°07'0 0.0
2016-Jul-22 22:34N 49°29' E 000°07'0 0.0
2016-Jul-22 21:34N 49°29' E 000°07'0 0.0
2016-Jul-22 20:33N 49°29' E 000°07'0 0.0
2016-Jul-22 19:33N 49°29' E 000°07'0 0.0
2016-Jul-22 18:34N 49°29' E 000°07'5 5.0
2016-Jul-22 17:34N 49°30' W 000°01'5 5.0
2016-Jul-22 16:33N 49°29' E 000°07'0 0.0
2016-Jul-22 15:33N 49°29' E 000°07'0 0.0
2016-Jul-22 14:34N 49°29' E 000°07'0 0.0
2016-Jul-22 13:33N 49°29' E 000°07'0 0.0
2016-Jul-22 12:33N 49°29' E 000°07'0 0.0
2016-Jul-22 11:33N 49°29' E 000°07'0 0.0
2016-Jul-22 10:33N 49°29' E 000°07'2 1.6
2016-Jul-22 09:34N 49°29' E 000°04'2 1.6
2016-Jul-22 08:34N 49°29' E 000°07'0 0.0
2016-Jul-22 07:34N 49°29' E 000°07'0 0.1
2016-Jul-22 05:33N 49°29' E 000°07'2 2.2
2016-Jul-22 04:33N 49°30' E 000°03'2 2.3
2016-Jul-22 03:34N 49°29' E 000°07'0 0.0
2016-Jul-22 02:34N 49°29' E 000°07'9 9.2
2016-Jul-22 01:34N 49°32' W 000°07'9 9.2
2016-Jul-22 00:33N 49°29' E 000°07'0 0.0
2016-Jul-21 23:33N 49°29' E 000°07'3 3.0
2016-Jul-21 22:33N 49°30' E 000°02'3 3.0
2016-Jul-21 21:33N 49°29' E 000°07'1 0.7
2016-Jul-21 20:34N 49°29' E 000°06'1 0.7
2016-Jul-21 19:33N 49°29' E 000°07'0 0.0
2016-Jul-21 18:33N 49°29' E 000°07'0 0.0
2016-Jul-21 17:33N 49°29' E 000°07'2 2.4
2016-Jul-21 16:33N 49°30' E 000°03'2 2.4
2016-Jul-21 15:34N 49°29' E 000°07'0 0.0
2016-Jul-21 14:33N 49°29' E 000°07'4 3.7
2016-Jul-21 13:33N 49°30' E 000°01'4 3.7
2016-Jul-21 12:33N 49°29' E 000°07'0 0.0
2016-Jul-21 11:33N 49°29' E 000°07'1 0.7
2016-Jul-21 10:33N 49°29' E 000°06'1 0.7
2016-Jul-21 09:33N 49°29' E 000°07'0 0.0
2016-Jul-21 08:33N 49°29' E 000°07'0 0.0
2016-Jul-21 07:33N 49°29' E 000°07'0 0.0
2016-Jul-21 06:33N 49°29' E 000°07'0 0.0
2016-Jul-21 05:33N 49°29' E 000°07'0 0.0
2016-Jul-21 04:33N 49°29' E 000°07'4 4.3
2016-Jul-21 03:34N 49°30' E 000°00'4 4.3
2016-Jul-21 02:33N 49°29' E 000°07'3 3.0
2016-Jul-21 01:34N 49°30' E 000°02'3 2.9
2016-Jul-21 00:33N 49°29' E 000°07'0 0.0
2016-Jul-20 23:34N 49°29' E 000°07'0 0.0
2016-Jul-20 22:33N 49°29' E 000°07'6 6.4
2016-Jul-20 21:34N 49°31' W 000°03'2 2.4
2016-Jul-20 20:33N 49°30' E 000°01'4 4.1
2016-Jul-20 19:33N 49°29' E 000°07'0 0.0
2016-Jul-20 18:34N 49°29' E 000°07'5 5.0
2016-Jul-20 17:34N 49°30' W 000°01'4 4.4
2016-Jul-20 16:33N 49°29' E 000°06'1 0.7
2016-Jul-20 15:33N 49°29' E 000°07'0 0.0
2016-Jul-20 14:33N 49°29' E 000°07'0 0.0
2016-Jul-20 13:33N 49°29' E 000°07'0 0.0
2016-Jul-20 12:33N 49°29' E 000°07'5 4.9
2016-Jul-20 11:33N 49°30' W 000°01'5 4.9
2016-Jul-20 10:33N 49°29' E 000°07'0 0.0
2016-Jul-20 09:34N 49°29' E 000°07'0 0.0
2016-Jul-20 08:33N 49°29' E 000°07'0 0.0
2016-Jul-20 07:34N 49°29' E 000°07'0 0.0
2016-Jul-20 06:34N 49°29' E 000°07'0 0.0
2016-Jul-20 05:33N 49°29' E 000°07'0 0.0
2016-Jul-20 04:33N 49°29' E 000°07'1 1.4
2016-Jul-20 03:33N 49°29' E 000°05'1 1.4
2016-Jul-20 02:34N 49°29' E 000°07'1 1.1
2016-Jul-20 01:34N 49°29' E 000°05'1 1.1
2016-Jul-20 00:34N 49°29' E 000°07'1 0.6
2016-Jul-19 23:34N 49°29' E 000°06'1 0.6
2016-Jul-19 22:34N 49°29' E 000°07'0 0.0
2016-Jul-19 21:34N 49°29' E 000°07'0 0.0
2016-Jul-19 20:34N 49°29' E 000°07'0 0.0
2016-Jul-19 19:34N 49°29' E 000°07'0 0.0
2016-Jul-19 18:34N 49°29' E 000°07'7 7.4
2016-Jul-19 17:34N 49°31' W 000°04'7 7.4
2016-Jul-19 16:33N 49°29' E 000°07'0 0.0
2016-Jul-19 15:33N 49°29' E 000°07'0 0.0
2016-Jul-19 14:33N 49°29' E 000°07'7 0.7
2016-Jul-19 04:33N 49°31' W 000°03'7 6.8
2016-Jul-19 03:33N 49°29' E 000°07'7 6.7
2016-Jul-19 02:34N 49°31' W 000°03'7 6.7
2016-Jul-19 01:33N 49°29' E 000°07'1 1.2
2016-Jul-19 00:34N 49°29' E 000°05'1 1.0
2016-Jul-18 23:34N 49°29' E 000°06'1 0.9
2016-Jul-18 22:33N 49°29' E 000°05'1 1.1
2016-Jul-18 21:34N 49°29' E 000°07'0 0.0
2016-Jul-18 20:33N 49°29' E 000°07'0 0.0
2016-Jul-18 14:33N 49°29' E 000°07'0 0.0
2016-Jul-18 13:33N 49°29' E 000°07'0 0.0
2016-Jul-18 12:33N 49°29' E 000°07'0 0.0
2016-Jul-18 11:33N 49°29' E 000°07'0 0.0
2016-Jul-18 10:33N 49°29' E 000°07'0 0.0
2016-Jul-18 09:33N 49°29' E 000°07'0 0.0
2016-Jul-18 08:33N 49°29' E 000°07'0 0.0
2016-Jul-18 07:33N 49°29' E 000°07'0 0.0
2016-Jul-18 06:33N 49°29' E 000°07'  
Track history (hours):
 
Tides and Currents Weather Stations Pressure Air Temp Water Temp Dewpoint Dewpoint Depression Visibility Wind Speed Wind Dir Waves Ship Positions

S C

Last reported at 2016-Jul-28 04:33 UTC. Time now 2016-Jul-28 04:43 UTC.
Position N 49°29' E 000°07'.

; draft 1 m.

Type: Pilot. MMSI: 227001820.

Date/timePositionNaut miles runAvg speedWind from/ knotsBaromVisibWave heightAir tempDewpointWater temp
2016-Jul-28 04:33N 49°29' E 000°07'1 1.3
2016-Jul-28 03:33N 49°29' E 000°05'1 1.3
2016-Jul-28 02:33N 49°29' E 000°07'0 0.0
2016-Jul-28 01:33N 49°29' E 000°07'0 0.0
2016-Jul-28 00:33N 49°29' E 000°07'0 0.0
2016-Jul-27 23:33N 49°29' E 000°07'0 0.0
2016-Jul-27 22:33N 49°29' E 000°07'0 0.0
2016-Jul-27 21:33N 49°29' E 000°07'2 2.2
2016-Jul-27 20:34N 49°30' E 000°04'3 2.8
2016-Jul-27 19:34N 49°30' W 000°01'5 4.9
2016-Jul-27 18:34N 49°29' E 000°07'0 0.0
2016-Jul-27 17:33N 49°29' E 000°07'0 0.0
2016-Jul-27 16:34N 49°29' E 000°07'0 0.0
2016-Jul-27 15:33N 49°29' E 000°07'2 2.4
2016-Jul-27 14:33N 49°30' E 000°03'2 2.4
2016-Jul-27 13:34N 49°29' E 000°07'0 0.0
2016-Jul-27 12:34N 49°29' E 000°07'0 0.1
2016-Jul-27 11:33N 49°29' E 000°07'0 0.1
2016-Jul-27 10:33N 49°29' E 000°07'0 0.0
2016-Jul-27 09:33N 49°29' E 000°07'0 0.0
2016-Jul-27 08:33N 49°29' E 000°07'0 0.0
2016-Jul-27 07:33N 49°29' E 000°07'0 0.0
2016-Jul-27 06:33N 49°29' E 000°07'0 0.0
2016-Jul-27 05:33N 49°29' E 000°07'0 0.0
2016-Jul-27 04:33N 49°29' E 000°07'4 3.7
2016-Jul-27 03:33N 49°30' E 000°01'3 3.3
2016-Jul-27 02:33N 49°29' E 000°06'7 6.6
2016-Jul-27 01:34N 49°31' W 000°03'7 6.9
2016-Jul-27 00:33N 49°29' E 000°07'0 0.0
2016-Jul-26 23:33N 49°29' E 000°07'0 0.0
2016-Jul-26 22:33N 49°29' E 000°07'0 0.0
2016-Jul-26 21:33N 49°29' E 000°07'0 0.5
2016-Jul-26 20:33N 49°29' E 000°06'0 0.5
2016-Jul-26 19:33N 49°29' E 000°07'0 0.0
2016-Jul-26 18:33N 49°29' E 000°07'6 6.0
2016-Jul-26 17:33N 49°32' W 000°01'6 6.0
2016-Jul-26 16:34N 49°29' E 000°07'0 0.0
2016-Jul-26 15:34N 49°29' E 000°07'0 0.0
2016-Jul-26 14:33N 49°29' E 000°07'0 0.1
2016-Jul-26 13:33N 49°29' E 000°07'5 5.5
2016-Jul-26 12:33N 49°31' W 000°01'5 5.5
2016-Jul-26 11:33N 49°29' E 000°07'0 0.0
2016-Jul-26 10:33N 49°29' E 000°07'3 3.3
2016-Jul-26 09:34N 49°30' E 000°02'3 3.3
2016-Jul-26 08:33N 49°29' E 000°07'1 1.4
2016-Jul-26 07:34N 49°29' E 000°05'1 1.4
2016-Jul-26 06:33N 49°29' E 000°07'0 0.0
2016-Jul-25 08:26N 49°29' E 000°07'0 0.0
2016-Jul-24 10:33N 49°29' E 000°06'3 3.3
2016-Jul-24 09:34N 49°30' E 000°01'4 3.7
2016-Jul-24 08:33N 49°29' E 000°07'0 0.0
2016-Jul-24 07:33N 49°29' E 000°07'0 0.0
2016-Jul-24 06:34N 49°29' E 000°07'7 6.9
2016-Jul-24 05:33N 49°31' W 000°03'7 6.9
2016-Jul-24 04:33N 49°29' E 000°07'0 0.0
2016-Jul-24 03:33N 49°29' E 000°07'0 0.0
2016-Jul-24 02:33N 49°29' E 000°07'7 7.2
2016-Jul-24 01:33N 49°31' W 000°04'7 7.2
2016-Jul-24 00:33N 49°29' E 000°07'4 4.0
2016-Jul-23 23:33N 49°30' E 000°01'4 4.0
2016-Jul-23 22:33N 49°29' E 000°07'0 0.0
2016-Jul-23 21:33N 49°29' E 000°07'0 0.0
2016-Jul-23 20:33N 49°29' E 000°07'3 2.9
2016-Jul-23 19:34N 49°30' E 000°02'3 2.9
2016-Jul-23 18:34N 49°29' E 000°07'5 5.2
2016-Jul-23 17:33N 49°30' W 000°01'5 5.2
2016-Jul-23 16:33N 49°29' E 000°07'0 0.0
2016-Jul-23 15:33N 49°29' E 000°07'0 0.0
2016-Jul-23 14:33N 49°29' E 000°07'7 6.7
2016-Jul-23 13:33N 49°31' W 000°03'7 6.7
2016-Jul-23 12:33N 49°29' E 000°07'0 0.0
2016-Jul-23 11:34N 49°29' E 000°07'0 0.0
2016-Jul-23 10:34N 49°29' E 000°07'1 0.9
2016-Jul-23 09:34N 49°29' E 000°05'5 4.8
2016-Jul-23 08:34N 49°30' W 000°02'1 0.8
2016-Jul-23 07:33N 49°31' W 000°01'5 5.0
2016-Jul-23 06:34N 49°29' E 000°07'3 1.6
2016-Jul-23 04:33N 49°30' E 000°02'3 3.2
2016-Jul-23 03:33N 49°29' E 000°07'0 0.0
2016-Jul-23 02:34N 49°29' E 000°07'10 9.5
2016-Jul-23 01:34N 49°33' W 000°06'10 9.5
2016-Jul-23 00:33N 49°29' E 000°07'0 0.0
2016-Jul-22 23:33N 49°29' E 000°07'0 0.0
2016-Jul-22 22:34N 49°29' E 000°07'0 0.0
2016-Jul-22 21:34N 49°29' E 000°07'0 0.0
2016-Jul-22 20:33N 49°29' E 000°07'0 0.0
2016-Jul-22 19:33N 49°29' E 000°07'0 0.0
2016-Jul-22 18:34N 49°29' E 000°07'5 5.0
2016-Jul-22 17:34N 49°30' W 000°01'5 5.0
2016-Jul-22 16:33N 49°29' E 000°07'0 0.0
2016-Jul-22 15:33N 49°29' E 000°07'0 0.0
2016-Jul-22 14:34N 49°29' E 000°07'0 0.0
2016-Jul-22 13:33N 49°29' E 000°07'0 0.0
2016-Jul-22 12:33N 49°29' E 000°07'0 0.0
2016-Jul-22 11:33N 49°29' E 000°07'0 0.0
2016-Jul-22 10:33N 49°29' E 000°07'2 1.6
2016-Jul-22 09:34N 49°29' E 000°04'2 1.6
2016-Jul-22 08:34N 49°29' E 000°07'0 0.0
2016-Jul-22 07:34N 49°29' E 000°07'0 0.1
2016-Jul-22 05:33N 49°29' E 000°07'2 2.2
2016-Jul-22 04:33N 49°30' E 000°03'2 2.3
2016-Jul-22 03:34N 49°29' E 000°07'0 0.0
2016-Jul-22 02:34N 49°29' E 000°07'9 9.2
2016-Jul-22 01:34N 49°32' W 000°07'9 9.2
2016-Jul-22 00:33N 49°29' E 000°07'0 0.0
2016-Jul-21 23:33N 49°29' E 000°07'3 3.0
2016-Jul-21 22:33N 49°30' E 000°02'3 3.0
2016-Jul-21 21:33N 49°29' E 000°07'1 0.7
2016-Jul-21 20:34N 49°29' E 000°06'1 0.7
2016-Jul-21 19:33N 49°29' E 000°07'0 0.0
2016-Jul-21 18:33N 49°29' E 000°07'0 0.0
2016-Jul-21 17:33N 49°29' E 000°07'2 2.4
2016-Jul-21 16:33N 49°30' E 000°03'2 2.4
2016-Jul-21 15:34N 49°29' E 000°07'0 0.0
2016-Jul-21 14:33N 49°29' E 000°07'4 3.7
2016-Jul-21 13:33N 49°30' E 000°01'4 3.7
2016-Jul-21 12:33N 49°29' E 000°07'0 0.0
2016-Jul-21 11:33N 49°29' E 000°07'1 0.7
2016-Jul-21 10:33N 49°29' E 000°06'1 0.7
2016-Jul-21 09:33N 49°29' E 000°07'0 0.0
2016-Jul-21 08:33N 49°29' E 000°07'0 0.0
2016-Jul-21 07:33N 49°29' E 000°07'0 0.0
2016-Jul-21 06:33N 49°29' E 000°07'0 0.0
2016-Jul-21 05:33N 49°29' E 000°07'0 0.0
2016-Jul-21 04:33N 49°29' E 000°07'4 4.3
2016-Jul-21 03:34N 49°30' E 000°00'4 4.3
2016-Jul-21 02:33N 49°29' E 000°07'3 3.0
2016-Jul-21 01:34N 49°30' E 000°02'3 2.9
2016-Jul-21 00:33N 49°29' E 000°07'0 0.0
2016-Jul-20 23:34N 49°29' E 000°07'0 0.0
2016-Jul-20 22:33N 49°29' E 000°07'6 6.4
2016-Jul-20 21:34N 49°31' W 000°03'2 2.4
2016-Jul-20 20:33N 49°30' E 000°01'4 4.1
2016-Jul-20 19:33N 49°29' E 000°07'0 0.0
2016-Jul-20 18:34N 49°29' E 000°07'5 5.0
2016-Jul-20 17:34N 49°30' W 000°01'4 4.4
2016-Jul-20 16:33N 49°29' E 000°06'1 0.7
2016-Jul-20 15:33N 49°29' E 000°07'0 0.0
2016-Jul-20 14:33N 49°29' E 000°07'0 0.0
2016-Jul-20 13:33N 49°29' E 000°07'0 0.0
2016-Jul-20 12:33N 49°29' E 000°07'5 4.9
2016-Jul-20 11:33N 49°30' W 000°01'5 4.9
2016-Jul-20 10:33N 49°29' E 000°07'0 0.0
2016-Jul-20 09:34N 49°29' E 000°07'0 0.0
2016-Jul-20 08:33N 49°29' E 000°07'0 0.0
2016-Jul-20 07:34N 49°29' E 000°07'0 0.0
2016-Jul-20 06:34N 49°29' E 000°07'0 0.0
2016-Jul-20 05:33N 49°29' E 000°07'0 0.0
2016-Jul-20 04:33N 49°29' E 000°07'1 1.4
2016-Jul-20 03:33N 49°29' E 000°05'1 1.4
2016-Jul-20 02:34N 49°29' E 000°07'1 1.1
2016-Jul-20 01:34N 49°29' E 000°05'1 1.1
2016-Jul-20 00:34N 49°29' E 000°07'1 0.6
2016-Jul-19 23:34N 49°29' E 000°06'1 0.6
2016-Jul-19 22:34N 49°29' E 000°07'0 0.0
2016-Jul-19 21:34N 49°29' E 000°07'0 0.0
2016-Jul-19 20:34N 49°29' E 000°07'0 0.0
2016-Jul-19 19:34N 49°29' E 000°07'0 0.0
2016-Jul-19 18:34N 49°29' E 000°07'7 7.4
2016-Jul-19 17:34N 49°31' W 000°04'7 7.4
2016-Jul-19 16:33N 49°29' E 000°07'0 0.0
2016-Jul-19 15:33N 49°29' E 000°07'0 0.0
2016-Jul-19 14:33N 49°29' E 000°07'7 0.7
2016-Jul-19 04:33N 49°31' W 000°03'7 6.8
2016-Jul-19 03:33N 49°29' E 000°07'7 6.7
2016-Jul-19 02:34N 49°31' W 000°03'7 6.7
2016-Jul-19 01:33N 49°29' E 000°07'1 1.2
2016-Jul-19 00:34N 49°29' E 000°05'1 1.0
2016-Jul-18 23:34N 49°29' E 000°06'1 0.9
2016-Jul-18 22:33N 49°29' E 000°05'1 1.1
2016-Jul-18 21:34N 49°29' E 000°07'0 0.0
2016-Jul-18 20:33N 49°29' E 000°07'0 0.0
2016-Jul-18 14:33N 49°29' E 000°07'0 0.0
2016-Jul-18 13:33N 49°29' E 000°07'0 0.0
2016-Jul-18 12:33N 49°29' E 000°07'0 0.0
2016-Jul-18 11:33N 49°29' E 000°07'0 0.0
2016-Jul-18 10:33N 49°29' E 000°07'0 0.0
2016-Jul-18 09:33N 49°29' E 000°07'0 0.0
2016-Jul-18 08:33N 49°29' E 000°07'0 0.0
2016-Jul-18 07:33N 49°29' E 000°07'0 0.0
2016-Jul-18 06:33N 49°29' E 000°07'  

Dump ship's entire track history